createdAt,value
2023-09-17T00:01:21.782Z,99.90
2023-09-17T00:03:49.305Z,99.90
2023-09-17T00:06:16.515Z,99.90
2023-09-17T00:08:43.552Z,99.90
2023-09-17T00:11:10.662Z,99.90
2023-09-17T00:13:39.196Z,99.90
2023-09-17T00:16:06.632Z,99.90
2023-09-17T00:18:33.573Z,99.90
2023-09-17T00:21:00.523Z,99.90
2023-09-17T00:23:27.384Z,99.90
2023-09-17T00:25:54.303Z,99.90
2023-09-17T00:28:21.142Z,99.90
2023-09-17T00:30:48.500Z,99.90
2023-09-17T00:33:15.358Z,99.90
2023-09-17T00:35:42.306Z,99.90
2023-09-17T00:38:10.641Z,99.90
2023-09-17T00:40:38.663Z,99.90
2023-09-17T00:43:05.810Z,99.90
2023-09-17T00:45:33.352Z,99.90
2023-09-17T00:48:01.679Z,99.90
2023-09-17T00:50:29.137Z,99.90
2023-09-17T00:52:56.190Z,99.90
2023-09-17T00:55:23.261Z,99.90
2023-09-17T00:57:51.456Z,99.90
2023-09-17T01:00:21.979Z,99.90
2023-09-17T01:02:49.733Z,99.90
2023-09-17T01:05:17.785Z,99.90
2023-09-17T01:07:45.837Z,99.90
2023-09-17T01:10:12.969Z,99.90
2023-09-17T01:12:41.074Z,99.90
2023-09-17T01:15:09.759Z,99.90
2023-09-17T01:17:36.814Z,99.90
2023-09-17T01:20:25.149Z,99.90
2023-09-17T01:22:57.106Z,99.90
2023-09-17T01:25:42.064Z,99.90
2023-09-17T01:28:12.338Z,99.90
2023-09-17T01:30:42.771Z,99.90
2023-09-17T01:33:13.269Z,99.90
2023-09-17T01:36:19.933Z,99.90
2023-09-17T01:38:55.482Z,99.90
2023-09-17T01:41:24.220Z,99.90
2023-09-17T01:43:52.171Z,99.90
2023-09-17T01:46:19.770Z,99.90
2023-09-17T01:48:48.538Z,99.90
2023-09-17T01:51:15.734Z,99.90
2023-09-17T01:53:43.105Z,99.90
2023-09-17T01:56:09.866Z,99.90
2023-09-17T01:58:38.037Z,99.90
2023-09-17T02:01:04.958Z,99.90
2023-09-17T02:03:32.227Z,99.90
2023-09-17T02:05:59.950Z,99.90
2023-09-17T02:08:27.044Z,99.90
2023-09-17T02:10:54.121Z,99.90
2023-09-17T02:13:21.074Z,99.90
2023-09-17T02:15:48.066Z,99.90
2023-09-17T02:18:16.199Z,99.90
2023-09-17T02:20:44.208Z,99.90
2023-09-17T02:23:11.504Z,99.90
2023-09-17T02:25:38.422Z,99.90
2023-09-17T02:28:05.371Z,99.90
2023-09-17T02:33:27.012Z,99.90
2023-09-17T02:35:54.729Z,99.90
2023-09-17T02:38:21.710Z,99.90
2023-09-17T02:40:48.549Z,99.90
2023-09-17T02:43:17.215Z,99.90
2023-09-17T02:45:44.203Z,99.90
2023-09-17T02:48:13.145Z,99.90
2023-09-17T02:50:43.298Z,99.90
2023-09-17T02:53:10.094Z,99.90
2023-09-17T02:55:36.902Z,99.90
2023-09-17T02:58:04.104Z,99.90
2023-09-17T03:00:35.042Z,99.90
2023-09-17T03:03:02.933Z,99.90
2023-09-17T03:05:29.858Z,99.90
2023-09-17T03:07:57.834Z,99.90
2023-09-17T03:10:25.115Z,99.90
2023-09-17T03:12:54.956Z,99.90
2023-09-17T03:15:21.933Z,99.90
2023-09-17T03:17:48.740Z,99.90
2023-09-17T03:20:18.432Z,99.90
2023-09-17T03:22:46.379Z,99.90
2023-09-17T03:25:14.204Z,99.90
2023-09-17T03:27:44.521Z,99.90
2023-09-17T03:30:12.887Z,99.90
2023-09-17T03:32:53.378Z,99.90
2023-09-17T03:35:26.322Z,99.90
2023-09-17T03:37:53.716Z,99.90
2023-09-17T03:40:20.812Z,99.90
2023-09-17T03:42:48.290Z,99.90
2023-09-17T03:45:15.679Z,99.90
2023-09-17T03:47:45.007Z,99.90
2023-09-17T03:50:15.115Z,99.90
2023-09-17T03:52:44.803Z,99.90
2023-09-17T03:55:12.453Z,99.90
2023-09-17T03:57:40.068Z,99.90
2023-09-17T04:00:11.394Z,99.90
2023-09-17T04:02:43.917Z,99.90
2023-09-17T04:05:13.577Z,99.90
2023-09-17T04:07:42.837Z,99.90
2023-09-17T04:10:10.979Z,99.90
2023-09-17T04:12:39.828Z,99.90
2023-09-17T04:15:11.547Z,99.90
2023-09-17T04:17:38.593Z,99.90
2023-09-17T04:20:12.370Z,99.90
2023-09-17T04:22:42.268Z,99.90
2023-09-17T04:25:11.135Z,99.90
2023-09-17T04:27:44.549Z,99.90
2023-09-17T04:30:16.257Z,99.90
2023-09-17T04:32:45.337Z,99.90
2023-09-17T04:35:17.226Z,99.90
2023-09-17T04:37:46.374Z,99.90
2023-09-17T04:40:13.308Z,99.90
2023-09-17T04:42:44.308Z,99.90
2023-09-17T04:45:31.568Z,99.90
2023-09-17T04:47:58.507Z,99.90
2023-09-17T04:50:26.529Z,99.90
2023-09-17T04:52:53.653Z,99.90
2023-09-17T04:55:20.819Z,99.90
2023-09-17T04:57:49.120Z,99.90
2023-09-17T05:00:16.203Z,99.90
2023-09-17T05:02:43.012Z,99.90
2023-09-17T05:05:11.622Z,99.90
2023-09-17T05:07:41.017Z,99.90
2023-09-17T05:10:08.928Z,99.90
2023-09-17T05:12:37.420Z,99.90
2023-09-17T05:15:04.943Z,99.90
2023-09-17T05:17:32.259Z,99.90
2023-09-17T05:20:00.003Z,99.90
2023-09-17T05:22:26.953Z,99.90
2023-09-17T05:24:54.444Z,99.90
2023-09-17T05:27:22.407Z,99.90
2023-09-17T05:29:49.315Z,99.90
2023-09-17T05:32:16.976Z,99.90
2023-09-17T05:34:45.514Z,99.90
2023-09-17T05:37:13.497Z,99.90
2023-09-17T05:39:40.409Z,99.90
2023-09-17T05:42:07.281Z,99.90
2023-09-17T05:44:34.089Z,99.90
2023-09-17T05:47:01.111Z,99.90
2023-09-17T05:49:28.176Z,99.90
2023-09-17T05:51:55.129Z,99.90
2023-09-17T05:54:22.897Z,99.90
2023-09-17T05:56:49.859Z,99.90
2023-09-17T05:59:18.601Z,99.90
2023-09-17T06:01:45.528Z,99.90
2023-09-17T06:04:12.412Z,99.90
2023-09-17T06:06:39.645Z,99.90
2023-09-17T06:09:06.990Z,99.90
2023-09-17T06:11:33.899Z,99.90
2023-09-17T06:14:00.861Z,99.90
2023-09-17T06:16:27.836Z,99.90
2023-09-17T06:18:55.968Z,99.90
2023-09-17T06:21:22.800Z,99.90
2023-09-17T06:23:49.923Z,99.90
2023-09-17T06:26:17.082Z,99.90
2023-09-17T06:28:44.138Z,99.90
2023-09-17T06:31:11.188Z,99.90
2023-09-17T06:33:38.199Z,99.90
2023-09-17T06:36:05.282Z,99.90
2023-09-17T06:38:32.417Z,99.90
2023-09-17T06:40:59.739Z,99.90
2023-09-17T06:43:27.338Z,99.90
2023-09-17T06:45:54.339Z,99.90
2023-09-17T06:48:21.230Z,99.90
2023-09-17T06:50:48.184Z,99.90
2023-09-17T06:53:15.246Z,99.90
2023-09-17T06:55:42.101Z,99.90
2023-09-17T06:58:09.939Z,99.90
2023-09-17T07:00:37.336Z,99.90
2023-09-17T07:03:04.473Z,99.90
2023-09-17T07:05:31.368Z,99.90
2023-09-17T07:07:58.223Z,99.90
2023-09-17T07:10:25.183Z,99.90
2023-09-17T07:12:53.048Z,99.90
2023-09-17T07:15:21.355Z,99.90
2023-09-17T07:17:51.012Z,99.90
2023-09-17T07:20:20.273Z,99.90
2023-09-17T07:22:50.410Z,99.90
2023-09-17T07:25:17.306Z,99.90
2023-09-17T07:27:44.099Z,99.90
2023-09-17T07:30:11.261Z,99.90
2023-09-17T07:32:38.551Z,99.90
2023-09-17T07:35:06.742Z,99.90
2023-09-17T07:37:49.566Z,99.90
2023-09-17T07:40:18.115Z,99.90
2023-09-17T07:42:45.244Z,99.90
2023-09-17T07:45:13.874Z,99.90
2023-09-17T07:47:40.853Z,99.90
2023-09-17T07:50:08.108Z,99.90
2023-09-17T07:52:34.896Z,99.90
2023-09-17T07:55:01.835Z,99.90
2023-09-17T07:57:28.728Z,99.90
2023-09-17T07:59:55.559Z,99.90
2023-09-17T08:02:22.411Z,99.90
2023-09-17T08:04:49.233Z,99.90
2023-09-17T08:07:17.608Z,99.90
2023-09-17T08:09:44.576Z,99.90
2023-09-17T08:12:11.365Z,99.90
2023-09-17T08:14:38.461Z,99.90
2023-09-17T08:17:05.589Z,99.90
2023-09-17T08:19:33.409Z,99.90
2023-09-17T08:22:00.335Z,99.90
2023-09-17T08:24:27.159Z,99.90
2023-09-17T08:26:54.333Z,99.90
2023-09-17T08:29:21.737Z,99.90
2023-09-17T08:31:48.633Z,99.90
2023-09-17T08:34:16.191Z,99.90
2023-09-17T08:36:43.430Z,99.90
2023-09-17T08:39:10.356Z,99.90
2023-09-17T08:41:37.213Z,99.90
2023-09-17T08:44:05.332Z,99.90
2023-09-17T08:46:33.346Z,99.90
2023-09-17T08:49:02.391Z,99.90
2023-09-17T08:51:34.513Z,99.90
2023-09-17T08:54:12.321Z,99.90
2023-09-17T08:56:43.955Z,99.90
2023-09-17T08:59:14.513Z,99.90
2023-09-17T09:01:45.520Z,99.90
2023-09-17T09:04:14.599Z,99.90
2023-09-17T09:06:44.163Z,99.90
2023-09-17T09:09:11.694Z,99.90
2023-09-17T09:11:39.023Z,99.90
2023-09-17T09:14:08.298Z,99.90
2023-09-17T09:16:38.785Z,99.90
2023-09-17T09:19:07.451Z,99.90
2023-09-17T09:21:34.543Z,99.90
2023-09-17T09:24:01.401Z,99.90
2023-09-17T09:26:35.687Z,99.90
2023-09-17T09:29:03.209Z,99.90
2023-09-17T09:31:30.829Z,99.90
2023-09-17T09:34:00.685Z,99.90
2023-09-17T09:36:33.941Z,99.90
2023-09-17T09:39:02.339Z,99.90
2023-09-17T09:41:34.424Z,99.90
2023-09-17T09:44:01.803Z,99.90
2023-09-17T09:46:29.851Z,99.90
2023-09-17T09:49:02.732Z,99.90
2023-09-17T09:51:33.025Z,99.90
2023-09-17T09:54:00.039Z,99.90
2023-09-17T09:56:30.012Z,99.90
2023-09-17T09:58:57.434Z,99.90
2023-09-17T10:01:24.828Z,99.90
2023-09-17T10:03:52.485Z,99.90
2023-09-17T10:06:20.959Z,99.90
2023-09-17T10:08:47.941Z,99.90
2023-09-17T10:11:15.924Z,99.90
2023-09-17T10:13:43.680Z,99.90
2023-09-17T10:16:11.479Z,99.90
2023-09-17T10:18:40.099Z,99.90
2023-09-17T10:21:07.061Z,99.90
2023-09-17T10:23:36.208Z,99.90
2023-09-17T10:26:04.342Z,99.90
2023-09-17T10:28:34.959Z,99.90
2023-09-17T10:31:02.848Z,99.90
2023-09-17T10:33:32.866Z,99.90
2023-09-17T10:36:02.978Z,99.90
2023-09-17T10:38:33.315Z,99.90
2023-09-17T10:41:01.856Z,99.90
2023-09-17T10:43:29.632Z,99.90
2023-09-17T10:45:57.747Z,99.90
2023-09-17T10:48:28.437Z,99.90
2023-09-17T10:50:55.905Z,99.90
2023-09-17T10:53:23.462Z,99.90
2023-09-17T10:56:00.515Z,99.90
2023-09-17T10:58:37.933Z,99.90
2023-09-17T11:01:09.924Z,99.90
2023-09-17T11:03:43.826Z,99.10
2023-09-17T11:06:17.974Z,95.90
2023-09-17T11:08:46.311Z,96.30
2023-09-17T11:11:17.447Z,96.40
2023-09-17T11:13:47.556Z,95.60
2023-09-17T11:16:19.467Z,95.40
2023-09-17T11:19:14.919Z,95.40
2023-09-17T11:21:43.870Z,95.00
2023-09-17T11:24:13.626Z,96.60
2023-09-17T11:26:43.089Z,95.50
2023-09-17T11:29:11.830Z,95.50
2023-09-17T11:31:54.121Z,95.10
2023-09-17T11:34:22.751Z,94.30
2023-09-17T11:36:49.689Z,94.60
2023-09-17T11:39:17.567Z,92.00
2023-09-17T11:41:52.286Z,91.10
2023-09-17T11:44:21.238Z,92.30
2023-09-17T11:46:48.499Z,92.20
2023-09-17T11:49:19.199Z,91.10
2023-09-17T11:51:48.089Z,92.00
2023-09-17T11:54:17.143Z,90.60
2023-09-17T11:56:55.185Z,86.80
2023-09-17T11:59:23.629Z,90.10
2023-09-17T12:01:56.532Z,89.70
2023-09-17T12:04:26.514Z,89.70
2023-09-17T12:06:54.779Z,86.40
2023-09-17T12:09:34.764Z,85.50
2023-09-17T12:12:01.619Z,84.20
2023-09-17T12:14:28.475Z,89.30
2023-09-17T12:16:56.104Z,85.00
2023-09-17T12:19:23.066Z,87.60
2023-09-17T12:21:56.216Z,87.10
2023-09-17T12:24:36.234Z,83.30
2023-09-17T12:27:09.643Z,84.70
2023-09-17T12:29:39.164Z,85.20
2023-09-17T12:32:06.865Z,88.20
2023-09-17T12:34:38.182Z,90.40
2023-09-17T12:37:08.542Z,82.80
2023-09-17T12:39:35.434Z,85.20
2023-09-17T12:42:02.641Z,83.40
2023-09-17T12:44:29.556Z,83.30
2023-09-17T12:46:56.750Z,83.20
2023-09-17T12:49:25.179Z,84.80
2023-09-17T12:51:55.151Z,86.60
2023-09-17T12:54:23.126Z,87.00
2023-09-17T12:56:53.837Z,84.00
2023-09-17T12:59:33.916Z,85.90
2023-09-17T13:02:02.577Z,86.30
2023-09-17T13:04:43.327Z,85.50
2023-09-17T13:07:22.002Z,82.20
2023-09-17T13:09:51.141Z,85.30
2023-09-17T13:12:24.015Z,84.70
2023-09-17T13:14:53.245Z,87.80
2023-09-17T13:17:24.446Z,88.70
2023-09-17T13:19:51.427Z,86.80
2023-09-17T13:22:20.206Z,88.10
2023-09-17T13:24:47.828Z,82.30
2023-09-17T13:27:18.839Z,84.90
2023-09-17T13:29:50.739Z,82.10
2023-09-17T13:32:19.507Z,82.80
2023-09-17T13:34:46.933Z,81.30
2023-09-17T13:37:14.449Z,82.20
2023-09-17T13:39:47.093Z,81.70
2023-09-17T13:42:14.128Z,82.40
2023-09-17T13:44:41.067Z,80.10
2023-09-17T13:47:10.770Z,82.30
2023-09-17T13:49:38.926Z,79.90
2023-09-17T13:52:06.936Z,78.30
2023-09-17T13:54:35.037Z,77.80
2023-09-17T13:57:02.012Z,80.00
2023-09-17T13:59:28.778Z,80.60
2023-09-17T14:01:55.736Z,78.80
2023-09-17T14:04:23.755Z,78.10
2023-09-17T14:06:55.571Z,78.50
2023-09-17T14:09:23.190Z,78.70
2023-09-17T14:11:50.080Z,80.10
2023-09-17T14:14:17.144Z,78.60
2023-09-17T14:16:45.462Z,80.00
2023-09-17T14:19:18.842Z,78.40
2023-09-17T14:21:46.793Z,77.00
2023-09-17T14:24:13.752Z,79.20
2023-09-17T14:26:40.553Z,76.80
2023-09-17T14:29:07.413Z,77.20
2023-09-17T14:31:34.336Z,77.80
2023-09-17T14:34:01.270Z,78.50
2023-09-17T14:36:28.163Z,77.10
2023-09-17T14:38:56.213Z,79.50
2023-09-17T14:41:23.383Z,78.60
2023-09-17T14:43:50.662Z,81.40
2023-09-17T14:46:17.483Z,84.70
2023-09-17T14:48:44.418Z,79.60
2023-09-17T14:51:11.210Z,79.20
2023-09-17T14:53:38.162Z,78.90
2023-09-17T14:56:05.185Z,80.20
2023-09-17T14:58:32.062Z,81.40
2023-09-17T15:01:00.895Z,82.60
2023-09-17T15:03:30.821Z,80.40
2023-09-17T15:05:58.001Z,80.60
2023-09-17T15:08:24.860Z,83.60
2023-09-17T15:10:52.131Z,78.60
2023-09-17T15:13:19.304Z,80.10
2023-09-17T15:15:49.002Z,79.20
2023-09-17T15:18:16.118Z,76.40
2023-09-17T15:20:47.186Z,77.20
2023-09-17T15:23:14.168Z,79.30
2023-09-17T15:25:41.008Z,78.90
2023-09-17T15:28:08.601Z,78.20
2023-09-17T15:30:35.551Z,80.10
2023-09-17T15:33:02.578Z,78.90
2023-09-17T15:35:30.459Z,79.20
2023-09-17T15:38:05.694Z,75.90
2023-09-17T15:40:32.798Z,76.30
2023-09-17T15:42:59.790Z,78.90
2023-09-17T15:45:26.562Z,78.80
2023-09-17T15:47:53.523Z,82.30
2023-09-17T15:50:20.782Z,77.40
2023-09-17T15:52:47.869Z,79.30
2023-09-17T15:55:17.443Z,78.10
2023-09-17T15:57:48.559Z,81.00
2023-09-17T16:00:15.775Z,80.60
2023-09-17T16:02:42.880Z,82.40
2023-09-17T16:05:10.214Z,84.30
2023-09-17T16:07:41.018Z,87.30
2023-09-17T16:10:08.738Z,88.90
2023-09-17T16:12:36.573Z,88.10
2023-09-17T16:15:03.942Z,90.00
2023-09-17T16:17:30.801Z,90.90
2023-09-17T16:19:57.810Z,93.90
2023-09-17T16:22:24.851Z,92.30
2023-09-17T16:24:51.905Z,88.90
2023-09-17T16:27:18.740Z,92.80
2023-09-17T16:29:45.536Z,93.80
2023-09-17T16:32:12.479Z,96.10
2023-09-17T16:34:39.531Z,94.70
2023-09-17T16:37:07.761Z,91.30
2023-09-17T16:39:34.868Z,93.30
2023-09-17T16:42:01.712Z,92.80
2023-09-17T16:44:28.574Z,93.60
2023-09-17T16:46:55.623Z,95.80
2023-09-17T16:49:22.913Z,96.10
2023-09-17T16:51:49.785Z,97.80
2023-09-17T16:54:18.898Z,99.20
2023-09-17T16:56:46.193Z,99.90
2023-09-17T16:59:13.861Z,99.90
2023-09-17T17:01:40.838Z,99.90
2023-09-17T17:04:08.002Z,99.90
2023-09-17T17:06:34.884Z,99.90
2023-09-17T17:09:01.716Z,99.90
2023-09-17T17:11:30.273Z,99.90
2023-09-17T17:13:57.750Z,99.90
2023-09-17T17:16:24.656Z,99.90
2023-09-17T17:18:51.529Z,99.90
2023-09-17T17:21:19.027Z,99.90
2023-09-17T17:23:45.922Z,99.90
2023-09-17T17:26:13.312Z,99.90
2023-09-17T17:28:40.560Z,99.90
2023-09-17T17:31:07.513Z,99.90
2023-09-17T17:33:34.391Z,99.90
2023-09-17T17:36:01.441Z,99.90
2023-09-17T17:38:28.364Z,99.90
2023-09-17T17:40:55.621Z,99.90
2023-09-17T17:43:22.488Z,99.90
2023-09-17T17:45:49.487Z,99.90
2023-09-17T17:48:16.543Z,99.90
2023-09-17T17:50:45.908Z,99.90
2023-09-17T17:53:13.672Z,99.90
2023-09-17T17:55:40.736Z,99.90
2023-09-17T17:58:07.679Z,99.90
2023-09-17T18:00:34.764Z,99.90
2023-09-17T18:03:01.687Z,99.90
2023-09-17T18:05:29.489Z,99.90
2023-09-17T18:07:56.388Z,99.90
2023-09-17T18:10:23.906Z,99.90
2023-09-17T18:12:50.797Z,99.90
2023-09-17T18:15:21.172Z,99.90
2023-09-17T18:17:48.904Z,99.90
2023-09-17T18:20:17.948Z,99.90
2023-09-17T18:22:45.158Z,99.90
2023-09-17T18:25:11.951Z,99.90
2023-09-17T18:27:39.016Z,99.90
2023-09-17T18:30:06.494Z,99.90
2023-09-17T18:32:34.898Z,99.90
2023-09-17T18:35:01.915Z,99.90
2023-09-17T18:37:29.079Z,99.90
2023-09-17T18:39:56.008Z,99.90
2023-09-17T18:42:23.217Z,99.90
2023-09-17T18:44:51.795Z,99.90
2023-09-17T18:47:20.622Z,99.90
2023-09-17T18:49:49.065Z,99.90
2023-09-17T18:52:15.987Z,99.90
2023-09-17T18:54:44.649Z,99.90
2023-09-17T18:57:12.229Z,99.90
2023-09-17T18:59:39.018Z,99.90
2023-09-17T19:02:05.972Z,99.90
2023-09-17T19:04:32.928Z,99.90
2023-09-17T19:06:59.714Z,99.90
2023-09-17T19:09:26.455Z,99.90
2023-09-17T19:11:53.231Z,99.90
2023-09-17T19:14:20.064Z,99.90
2023-09-17T19:16:47.176Z,99.90
2023-09-17T19:19:14.105Z,99.90
2023-09-17T19:21:40.912Z,99.90
2023-09-17T19:24:08.000Z,99.90
2023-09-17T19:26:34.774Z,99.90
2023-09-17T19:29:04.212Z,99.90
2023-09-17T19:31:31.089Z,99.90
2023-09-17T19:33:59.240Z,99.90
2023-09-17T19:36:26.227Z,99.90
2023-09-17T19:38:54.541Z,99.90
2023-09-17T19:41:21.395Z,99.90
2023-09-17T19:43:48.431Z,99.90
2023-09-17T19:46:15.313Z,99.90
2023-09-17T19:48:42.513Z,99.90
2023-09-17T19:51:12.175Z,99.90
2023-09-17T19:53:40.417Z,99.90
2023-09-17T19:56:07.214Z,99.90
2023-09-17T19:58:34.336Z,99.90
2023-09-17T20:01:03.720Z,99.90
2023-09-17T20:03:30.686Z,99.90
2023-09-17T20:05:57.647Z,99.90
2023-09-17T20:08:24.503Z,99.90
2023-09-17T20:10:51.293Z,99.90
2023-09-17T20:13:18.462Z,99.90
2023-09-17T20:15:49.072Z,99.90
2023-09-17T20:18:16.166Z,99.90
2023-09-17T20:20:47.433Z,99.90
2023-09-17T20:23:14.903Z,99.90
2023-09-17T20:25:42.331Z,99.90
2023-09-17T20:28:14.589Z,99.90
2023-09-17T20:30:42.357Z,99.90
2023-09-17T20:33:09.304Z,99.90
2023-09-17T20:35:39.074Z,99.90
2023-09-17T20:38:06.156Z,99.90
2023-09-17T20:40:33.525Z,99.90
2023-09-17T20:43:02.000Z,99.90
2023-09-17T20:45:28.953Z,99.90
2023-09-17T20:47:57.281Z,99.90
2023-09-17T20:50:24.603Z,99.90
2023-09-17T20:52:51.773Z,99.90
2023-09-17T20:55:18.758Z,99.90
2023-09-17T20:57:45.648Z,99.90
2023-09-17T21:00:13.215Z,99.90
2023-09-17T21:02:40.249Z,99.90
2023-09-17T21:05:07.439Z,99.90
2023-09-17T21:07:34.629Z,99.90
2023-09-17T21:10:01.448Z,99.90
2023-09-17T21:12:29.728Z,99.90
2023-09-17T21:14:56.672Z,99.90
2023-09-17T21:17:23.552Z,99.90
2023-09-17T21:19:50.508Z,99.90
2023-09-17T21:22:17.341Z,99.90
2023-09-17T21:24:44.439Z,99.90
2023-09-17T21:27:13.469Z,99.90
2023-09-17T21:29:40.274Z,99.90
2023-09-17T21:32:07.293Z,99.90
2023-09-17T21:34:34.137Z,99.90
2023-09-17T21:37:02.558Z,99.90
2023-09-17T21:39:29.852Z,99.90
2023-09-17T21:42:00.172Z,99.90
2023-09-17T21:44:27.150Z,99.90
2023-09-17T21:46:54.650Z,99.90
2023-09-17T21:49:22.137Z,99.90
2023-09-17T21:51:49.219Z,99.90
2023-09-17T21:54:16.142Z,99.90
2023-09-17T21:56:43.409Z,99.90
2023-09-17T21:59:10.396Z,99.90
2023-09-17T22:01:37.355Z,99.90
2023-09-17T22:04:04.530Z,99.90
2023-09-17T22:06:31.657Z,99.90
2023-09-17T22:08:58.900Z,99.90
2023-09-17T22:11:26.004Z,99.90
2023-09-17T22:13:52.929Z,99.90
2023-09-17T22:16:19.973Z,99.90
2023-09-17T22:18:46.811Z,99.90
2023-09-17T22:21:13.721Z,99.90
2023-09-17T22:23:40.595Z,99.90
2023-09-17T22:26:08.702Z,99.90
2023-09-17T22:28:36.081Z,99.90
2023-09-17T22:31:11.022Z,99.90
2023-09-17T22:33:37.958Z,99.90
2023-09-17T22:36:11.253Z,99.90
2023-09-17T22:38:45.281Z,99.90
2023-09-17T22:41:26.547Z,99.90
2023-09-17T22:43:59.767Z,99.90
2023-09-17T22:46:32.207Z,99.90
2023-09-17T22:48:59.701Z,99.90
2023-09-17T22:51:30.600Z,99.90
2023-09-17T22:54:00.618Z,99.90
2023-09-17T22:56:27.727Z,99.90
2023-09-17T22:58:55.040Z,99.90
2023-09-17T23:01:22.026Z,99.90
2023-09-17T23:03:49.032Z,99.90
2023-09-17T23:06:16.558Z,99.90
2023-09-17T23:08:43.416Z,99.90
2023-09-17T23:11:10.685Z,99.90
2023-09-17T23:13:37.710Z,99.90
2023-09-17T23:16:05.292Z,99.90
2023-09-17T23:18:33.830Z,99.90
2023-09-17T23:21:04.526Z,99.90
2023-09-17T23:23:31.707Z,99.90
2023-09-17T23:25:58.594Z,99.90
2023-09-17T23:28:26.619Z,99.90
2023-09-17T23:30:53.577Z,99.90
2023-09-17T23:33:21.301Z,99.90
2023-09-17T23:35:51.016Z,99.90
2023-09-17T23:38:18.814Z,99.90
2023-09-17T23:40:45.680Z,99.90
2023-09-17T23:43:13.068Z,99.90
2023-09-17T23:45:40.370Z,99.90
2023-09-17T23:48:07.945Z,99.90
2023-09-17T23:50:34.942Z,99.90
2023-09-17T23:53:05.470Z,99.90
2023-09-17T23:55:32.621Z,99.90
2023-09-17T23:57:59.741Z,99.90
